sensor_id;sensor_type;location;lat;lon;timestamp;pressure;altitude;pressure_sealevel;temperature;humidity
11830;BME280;5972;42.134;24.718;2022-09-16T00:00:43;98884.59;;;23.38;100.00
11830;BME280;5972;42.134;24.718;2022-09-16T00:03:10;98884.84;;;23.18;100.00
11830;BME280;5972;42.134;24.718;2022-09-16T00:05:40;98883.66;;;23.06;100.00
11830;BME280;5972;42.134;24.718;2022-09-16T00:08:07;98882.41;;;23.07;100.00
11830;BME280;5972;42.134;24.718;2022-09-16T00:10:34;98882.53;;;23.04;100.00
11830;BME280;5972;42.134;24.718;2022-09-16T00:13:01;98889.59;;;23.05;100.00
11830;BME280;5972;42.134;24.718;2022-09-16T00:15:29;98882.09;;;23.05;100.00
11830;BME280;5972;42.134;24.718;2022-09-16T00:17:56;98878.78;;;23.10;100.00
11830;BME280;5972;42.134;24.718;2022-09-16T00:20:24;98879.88;;;23.13;100.00
11830;BME280;5972;42.134;24.718;2022-09-16T00:22:50;98866.63;;;23.08;100.00
11830;BME280;5972;42.134;24.718;2022-09-16T00:25:17;98839.94;;;22.92;100.00
11830;BME280;5972;42.134;24.718;2022-09-16T00:27:46;98872.25;;;23.17;100.00
11830;BME280;5972;42.134;24.718;2022-09-16T00:30:13;98871.13;;;23.27;100.00
11830;BME280;5972;42.134;24.718;2022-09-16T00:32:41;98874.47;;;23.22;100.00
11830;BME280;5972;42.134;24.718;2022-09-16T00:35:08;98873.69;;;23.21;100.00
11830;BME280;5972;42.134;24.718;2022-09-16T00:37:35;98872.47;;;23.23;100.00
11830;BME280;5972;42.134;24.718;2022-09-16T00:40:02;98875.03;;;23.17;100.00
11830;BME280;5972;42.134;24.718;2022-09-16T00:42:29;98857.47;;;23.11;100.00
11830;BME280;5972;42.134;24.718;2022-09-16T00:44:58;98879.22;;;23.21;100.00
11830;BME280;5972;42.134;24.718;2022-09-16T00:47:30;98878.44;;;23.21;100.00
11830;BME280;5972;42.134;24.718;2022-09-16T00:50:03;98889.69;;;23.27;100.00
11830;BME280;5972;42.134;24.718;2022-09-16T00:52:32;98871.06;;;23.18;100.00
11830;BME280;5972;42.134;24.718;2022-09-16T00:55:02;98883.72;;;23.28;100.00
11830;BME280;5972;42.134;24.718;2022-09-16T00:57:31;98889.00;;;23.35;100.00
11830;BME280;5972;42.134;24.718;2022-09-16T01:00:00;98892.09;;;23.37;100.00
11830;BME280;5972;42.134;24.718;2022-09-16T01:02:27;98892.78;;;23.29;100.00
11830;BME280;5972;42.134;24.718;2022-09-16T01:04:57;98894.88;;;23.25;100.00
11830;BME280;5972;42.134;24.718;2022-09-16T01:07:30;98898.88;;;23.24;100.00
11830;BME280;5972;42.134;24.718;2022-09-16T01:09:59;98906.03;;;23.21;100.00
11830;BME280;5972;42.134;24.718;2022-09-16T01:12:27;98908.56;;;23.15;100.00
11830;BME280;5972;42.134;24.718;2022-09-16T01:14:55;98906.25;;;23.14;100.00
11830;BME280;5972;42.134;24.718;2022-09-16T01:17:31;98905.59;;;23.10;100.00
11830;BME280;5972;42.134;24.718;2022-09-16T01:23:25;98913.66;;;23.04;100.00
11830;BME280;5972;42.134;24.718;2022-09-16T01:26:13;98884.63;;;22.87;100.00
11830;BME280;5972;42.134;24.718;2022-09-16T01:29:01;98916.31;;;22.95;100.00
11830;BME280;5972;42.134;24.718;2022-09-16T01:31:41;98899.56;;;22.90;100.00
11830;BME280;5972;42.134;24.718;2022-09-16T01:34:18;98903.31;;;22.96;100.00
11830;BME280;5972;42.134;24.718;2022-09-16T01:36:57;98909.47;;;22.87;100.00
11830;BME280;5972;42.134;24.718;2022-09-16T01:39:30;98902.19;;;22.80;100.00
11830;BME280;5972;42.134;24.718;2022-09-16T01:42:15;98900.63;;;22.79;100.00
11830;BME280;5972;42.134;24.718;2022-09-16T01:44:49;98910.13;;;22.78;100.00
11830;BME280;5972;42.134;24.718;2022-09-16T01:49:57;98903.25;;;22.70;100.00
11830;BME280;5972;42.134;24.718;2022-09-16T01:52:34;98904.84;;;22.71;100.00
11830;BME280;5972;42.134;24.718;2022-09-16T01:55:06;98895.97;;;22.64;100.00
11830;BME280;5972;42.134;24.718;2022-09-16T01:57:38;98895.31;;;22.60;100.00
11830;BME280;5972;42.134;24.718;2022-09-16T02:00:11;98896.94;;;22.57;100.00
11830;BME280;5972;42.134;24.718;2022-09-16T02:02:43;98891.19;;;22.52;100.00
11830;BME280;5972;42.134;24.718;2022-09-16T02:05:15;98904.13;;;22.55;100.00
11830;BME280;5972;42.134;24.718;2022-09-16T02:07:50;98881.81;;;22.36;100.00
11830;BME280;5972;42.134;24.718;2022-09-16T02:10:21;98894.06;;;22.48;100.00
11830;BME280;5972;42.134;24.718;2022-09-16T02:12:53;98897.59;;;22.49;100.00
11830;BME280;5972;42.134;24.718;2022-09-16T02:15:22;98906.66;;;22.49;100.00
11830;BME280;5972;42.134;24.718;2022-09-16T02:17:56;98893.06;;;22.42;100.00
11830;BME280;5972;42.134;24.718;2022-09-16T02:20:27;98901.88;;;22.37;100.00
11830;BME280;5972;42.134;24.718;2022-09-16T02:22:58;98903.97;;;22.33;100.00
11830;BME280;5972;42.134;24.718;2022-09-16T02:25:27;98908.28;;;22.34;100.00
11830;BME280;5972;42.134;24.718;2022-09-16T02:27:59;98911.56;;;22.29;100.00
11830;BME280;5972;42.134;24.718;2022-09-16T02:30:28;98911.66;;;22.25;100.00
11830;BME280;5972;42.134;24.718;2022-09-16T02:33:00;98915.06;;;22.17;100.00
11830;BME280;5972;42.134;24.718;2022-09-16T02:35:33;98920.56;;;22.17;100.00
11830;BME280;5972;42.134;24.718;2022-09-16T02:38:05;98915.84;;;22.17;100.00
11830;BME280;5972;42.134;24.718;2022-09-16T02:40:41;98922.56;;;22.16;100.00
11830;BME280;5972;42.134;24.718;2022-09-16T02:43:10;98920.63;;;22.01;100.00
11830;BME280;5972;42.134;24.718;2022-09-16T02:45:45;98947.28;;;22.04;100.00
11830;BME280;5972;42.134;24.718;2022-09-16T02:48:19;98944.91;;;21.89;100.00
11830;BME280;5972;42.134;24.718;2022-09-16T02:51:00;98940.25;;;21.86;100.00
11830;BME280;5972;42.134;24.718;2022-09-16T02:53:37;98936.16;;;21.78;100.00
11830;BME280;5972;42.134;24.718;2022-09-16T02:56:12;98940.63;;;21.72;100.00
11830;BME280;5972;42.134;24.718;2022-09-16T02:58:41;98946.31;;;21.65;100.00
11830;BME280;5972;42.134;24.718;2022-09-16T03:01:10;98931.34;;;21.50;100.00
11830;BME280;5972;42.134;24.718;2022-09-16T03:03:39;98937.28;;;21.48;100.00
11830;BME280;5972;42.134;24.718;2022-09-16T03:06:14;98939.41;;;21.57;100.00
11830;BME280;5972;42.134;24.718;2022-09-16T03:08:42;98929.81;;;21.49;100.00
11830;BME280;5972;42.134;24.718;2022-09-16T03:11:23;98915.00;;;21.43;100.00
11830;BME280;5972;42.134;24.718;2022-09-16T03:14:05;98911.06;;;21.44;100.00
11830;BME280;5972;42.134;24.718;2022-09-16T03:16:41;98929.13;;;21.45;100.00
11830;BME280;5972;42.134;24.718;2022-09-16T03:19:20;98934.19;;;21.46;100.00
11830;BME280;5972;42.134;24.718;2022-09-16T03:22:00;98908.56;;;21.33;100.00
11830;BME280;5972;42.134;24.718;2022-09-16T03:24:37;98924.81;;;21.44;100.00
11830;BME280;5972;42.134;24.718;2022-09-16T03:27:09;98921.72;;;21.42;100.00
11830;BME280;5972;42.134;24.718;2022-09-16T03:29:40;98926.78;;;21.43;100.00
11830;BME280;5972;42.134;24.718;2022-09-16T03:32:15;98913.88;;;21.40;100.00
11830;BME280;5972;42.134;24.718;2022-09-16T03:34:48;98883.56;;;21.28;100.00
11830;BME280;5972;42.134;24.718;2022-09-16T03:37:18;98905.13;;;21.45;100.00
11830;BME280;5972;42.134;24.718;2022-09-16T03:39:50;98914.31;;;21.55;100.00
11830;BME280;5972;42.134;24.718;2022-09-16T03:42:19;98929.97;;;21.58;100.00
11830;BME280;5972;42.134;24.718;2022-09-16T03:44:46;98934.16;;;21.63;100.00
11830;BME280;5972;42.134;24.718;2022-09-16T03:47:13;98907.25;;;21.54;100.00
11830;BME280;5972;42.134;24.718;2022-09-16T03:49:40;98922.47;;;21.58;100.00
11830;BME280;5972;42.134;24.718;2022-09-16T03:52:09;98911.28;;;21.66;100.00
11830;BME280;5972;42.134;24.718;2022-09-16T03:54:36;98899.41;;;21.69;100.00
11830;BME280;5972;42.134;24.718;2022-09-16T03:57:03;98896.84;;;21.62;100.00
11830;BME280;5972;42.134;24.718;2022-09-16T03:59:31;98900.97;;;21.53;100.00
11830;BME280;5972;42.134;24.718;2022-09-16T04:01:57;98870.47;;;21.32;100.00
11830;BME280;5972;42.134;24.718;2022-09-16T04:04:24;98900.38;;;21.46;100.00
11830;BME280;5972;42.134;24.718;2022-09-16T04:06:51;98905.19;;;21.42;100.00
11830;BME280;5972;42.134;24.718;2022-09-16T04:09:19;98902.28;;;21.49;100.00
11830;BME280;5972;42.134;24.718;2022-09-16T04:11:46;98909.91;;;21.57;100.00
11830;BME280;5972;42.134;24.718;2022-09-16T04:14:13;98905.09;;;21.62;100.00
11830;BME280;5972;42.134;24.718;2022-09-16T04:16:40;98902.16;;;21.69;100.00
11830;BME280;5972;42.134;24.718;2022-09-16T04:19:08;98905.31;;;21.83;100.00
11830;BME280;5972;42.134;24.718;2022-09-16T04:21:35;98913.38;;;21.90;100.00
11830;BME280;5972;42.134;24.718;2022-09-16T04:24:03;98916.81;;;22.11;100.00
11830;BME280;5972;42.134;24.718;2022-09-16T04:26:31;98927.09;;;22.23;100.00
11830;BME280;5972;42.134;24.718;2022-09-16T04:28:58;98923.69;;;22.31;100.00
11830;BME280;5972;42.134;24.718;2022-09-16T04:31:25;98891.50;;;22.28;100.00
11830;BME280;5972;42.134;24.718;2022-09-16T04:33:51;98932.63;;;22.77;100.00
11830;BME280;5972;42.134;24.718;2022-09-16T04:36:19;98933.75;;;23.05;100.00
11830;BME280;5972;42.134;24.718;2022-09-16T04:38:46;98930.31;;;23.26;100.00
11830;BME280;5972;42.134;24.718;2022-09-16T04:41:15;98927.22;;;23.49;100.00
11830;BME280;5972;42.134;24.718;2022-09-16T04:43:44;98934.22;;;23.76;100.00
11830;BME280;5972;42.134;24.718;2022-09-16T04:46:11;98929.75;;;23.91;100.00
11830;BME280;5972;42.134;24.718;2022-09-16T04:48:39;98926.16;;;24.03;100.00
11830;BME280;5972;42.134;24.718;2022-09-16T04:51:08;98918.66;;;24.25;100.00
11830;BME280;5972;42.134;24.718;2022-09-16T04:53:35;98924.47;;;24.40;99.28
11830;BME280;5972;42.134;24.718;2022-09-16T04:56:04;98921.19;;;24.63;96.09
11830;BME280;5972;42.134;24.718;2022-09-16T04:58:31;98941.72;;;24.75;93.70
11830;BME280;5972;42.134;24.718;2022-09-16T05:01:04;98928.22;;;24.86;92.35
11830;BME280;5972;42.134;24.718;2022-09-16T05:03:32;98939.41;;;25.04;90.68
11830;BME280;5972;42.134;24.718;2022-09-16T05:06:07;98948.00;;;25.37;88.73
11830;BME280;5972;42.134;24.718;2022-09-16T05:08:34;98952.63;;;25.40;91.23
11830;BME280;5972;42.134;24.718;2022-09-16T05:11:03;98956.72;;;25.57;86.64
11830;BME280;5972;42.134;24.718;2022-09-16T05:13:30;98972.56;;;25.66;85.53
11830;BME280;5972;42.134;24.718;2022-09-16T05:16:00;98947.06;;;26.26;81.60
11830;BME280;5972;42.134;24.718;2022-09-16T05:18:29;98951.94;;;27.18;71.88
11830;BME280;5972;42.134;24.718;2022-09-16T05:20:57;98959.84;;;28.15;62.37
11830;BME280;5972;42.134;24.718;2022-09-16T05:23:24;98948.00;;;29.03;56.29
11830;BME280;5972;42.134;24.718;2022-09-16T05:25:52;98942.97;;;29.76;52.41
11830;BME280;5972;42.134;24.718;2022-09-16T05:28:19;98936.41;;;30.46;48.13
11830;BME280;5972;42.134;24.718;2022-09-16T05:30:46;98923.03;;;31.13;44.92
11830;BME280;5972;42.134;24.718;2022-09-16T05:33:13;98929.97;;;31.65;44.05
11830;BME280;5972;42.134;24.718;2022-09-16T05:35:41;98922.63;;;32.66;40.96
11830;BME280;5972;42.134;24.718;2022-09-16T05:38:10;98929.22;;;33.08;39.26
11830;BME280;5972;42.134;24.718;2022-09-16T05:40:37;98933.19;;;33.62;38.75
11830;BME280;5972;42.134;24.718;2022-09-16T05:43:04;98926.88;;;34.14;37.21
11830;BME280;5972;42.134;24.718;2022-09-16T05:45:31;98924.75;;;34.96;35.01
11830;BME280;5972;42.134;24.718;2022-09-16T05:47:57;98930.91;;;35.25;33.91
11830;BME280;5972;42.134;24.718;2022-09-16T05:50:24;98932.16;;;35.72;33.35
11830;BME280;5972;42.134;24.718;2022-09-16T05:52:52;98925.28;;;36.48;31.87
11830;BME280;5972;42.134;24.718;2022-09-16T05:55:19;98931.00;;;36.75;31.30
11830;BME280;5972;42.134;24.718;2022-09-16T05:57:46;98919.25;;;36.89;31.51
11830;BME280;5972;42.134;24.718;2022-09-16T06:00:14;98928.72;;;37.97;29.96
11830;BME280;5972;42.134;24.718;2022-09-16T06:02:41;98925.84;;;38.57;29.05
11830;BME280;5972;42.134;24.718;2022-09-16T06:05:08;98924.53;;;38.58;28.80
11830;BME280;5972;42.134;24.718;2022-09-16T06:07:35;98920.31;;;38.52;28.11
11830;BME280;5972;42.134;24.718;2022-09-16T06:10:04;98916.66;;;38.85;27.82
11830;BME280;5972;42.134;24.718;2022-09-16T06:12:31;98913.41;;;39.30;27.92
11830;BME280;5972;42.134;24.718;2022-09-16T06:15:00;98910.47;;;39.72;27.12
11830;BME280;5972;42.134;24.718;2022-09-16T06:17:27;98913.56;;;39.81;26.64
11830;BME280;5972;42.134;24.718;2022-09-16T06:19:54;98914.53;;;39.27;26.82
11830;BME280;5972;42.134;24.718;2022-09-16T06:22:21;98924.94;;;37.95;28.55
11830;BME280;5972;42.134;24.718;2022-09-16T06:24:48;98915.47;;;37.00;29.79
11830;BME280;5972;42.134;24.718;2022-09-16T06:27:16;98927.28;;;36.98;29.76
11830;BME280;5972;42.134;24.718;2022-09-16T06:29:43;98922.91;;;37.69;29.11
11830;BME280;5972;42.134;24.718;2022-09-16T06:32:10;98927.22;;;38.64;27.95
11830;BME280;5972;42.134;24.718;2022-09-16T06:34:36;98922.22;;;39.40;27.20
11830;BME280;5972;42.134;24.718;2022-09-16T06:37:03;98929.03;;;39.80;27.06
11830;BME280;5972;42.134;24.718;2022-09-16T06:39:31;98933.63;;;39.91;26.89
11830;BME280;5972;42.134;24.718;2022-09-16T06:41:57;98927.22;;;40.57;25.69
11830;BME280;5972;42.134;24.718;2022-09-16T06:44:26;98922.50;;;40.97;25.56
11830;BME280;5972;42.134;24.718;2022-09-16T06:46:52;98907.75;;;40.99;25.15
11830;BME280;5972;42.134;24.718;2022-09-16T06:49:19;98897.72;;;41.21;24.97
11830;BME280;5972;42.134;24.718;2022-09-16T06:51:46;98908.59;;;41.70;24.21
11830;BME280;5972;42.134;24.718;2022-09-16T06:54:13;98915.56;;;41.84;24.40
11830;BME280;5972;42.134;24.718;2022-09-16T06:56:40;98917.22;;;42.02;24.21
11830;BME280;5972;42.134;24.718;2022-09-16T06:59:07;98921.63;;;42.53;23.89
11830;BME280;5972;42.134;24.718;2022-09-16T07:01:35;98922.06;;;42.49;23.84
11830;BME280;5972;42.134;24.718;2022-09-16T07:04:04;98920.75;;;42.43;23.89
11830;BME280;5972;42.134;24.718;2022-09-16T07:06:33;98930.84;;;42.93;23.73
11830;BME280;5972;42.134;24.718;2022-09-16T07:09:00;98927.94;;;42.51;23.74
11830;BME280;5972;42.134;24.718;2022-09-16T07:11:27;98923.84;;;41.04;25.38
11830;BME280;5972;42.134;24.718;2022-09-16T07:13:54;98924.22;;;40.85;25.30
11830;BME280;5972;42.134;24.718;2022-09-16T07:16:22;98933.50;;;41.08;25.23
11830;BME280;5972;42.134;24.718;2022-09-16T07:18:53;98932.34;;;40.96;25.72
11830;BME280;5972;42.134;24.718;2022-09-16T07:21:21;98931.59;;;40.81;25.85
11830;BME280;5972;42.134;24.718;2022-09-16T07:23:50;98930.84;;;40.95;25.65
11830;BME280;5972;42.134;24.718;2022-09-16T07:26:19;98934.91;;;41.78;24.83
11830;BME280;5972;42.134;24.718;2022-09-16T07:28:48;98916.53;;;41.79;24.58
11830;BME280;5972;42.134;24.718;2022-09-16T07:31:17;98915.44;;;41.59;24.55
11830;BME280;5972;42.134;24.718;2022-09-16T07:33:47;98911.84;;;41.66;24.83
11830;BME280;5972;42.134;24.718;2022-09-16T07:36:18;98918.41;;;41.76;24.19
11830;BME280;5972;42.134;24.718;2022-09-16T07:38:45;98919.16;;;42.57;23.35
11830;BME280;5972;42.134;24.718;2022-09-16T07:41:14;98921.63;;;43.27;22.59
11830;BME280;5972;42.134;24.718;2022-09-16T07:43:42;98934.16;;;43.49;22.57
11830;BME280;5972;42.134;24.718;2022-09-16T07:46:10;98918.97;;;43.46;22.29
11830;BME280;5972;42.134;24.718;2022-09-16T07:48:37;98920.72;;;43.59;22.83
11830;BME280;5972;42.134;24.718;2022-09-16T07:51:06;98927.22;;;43.86;22.36
11830;BME280;5972;42.134;24.718;2022-09-16T07:53:35;98930.41;;;44.98;21.73
11830;BME280;5972;42.134;24.718;2022-09-16T07:56:04;98924.00;;;45.26;20.92
11830;BME280;5972;42.134;24.718;2022-09-16T07:58:31;98918.75;;;45.32;21.33
11830;BME280;5972;42.134;24.718;2022-09-16T08:00:58;98908.72;;;45.50;21.29
11830;BME280;5972;42.134;24.718;2022-09-16T08:03:25;98917.03;;;44.91;21.38
11830;BME280;5972;42.134;24.718;2022-09-16T08:05:51;98922.13;;;45.86;20.21
11830;BME280;5972;42.134;24.718;2022-09-16T08:08:18;98920.16;;;45.70;20.49
11830;BME280;5972;42.134;24.718;2022-09-16T08:10:53;98918.75;;;44.40;21.31
11830;BME280;5972;42.134;24.718;2022-09-16T08:13:20;98890.63;;;43.66;22.05
11830;BME280;5972;42.134;24.718;2022-09-16T08:15:47;98915.09;;;43.86;22.36
11830;BME280;5972;42.134;24.718;2022-09-16T08:18:14;98900.34;;;43.97;21.60
11830;BME280;5972;42.134;24.718;2022-09-16T08:20:41;98891.44;;;44.73;20.95
11830;BME280;5972;42.134;24.718;2022-09-16T08:23:08;98892.09;;;44.91;21.42
11830;BME280;5972;42.134;24.718;2022-09-16T08:25:34;98890.66;;;45.29;21.07
11830;BME280;5972;42.134;24.718;2022-09-16T08:28:03;98890.22;;;45.61;20.71
11830;BME280;5972;42.134;24.718;2022-09-16T08:30:30;98881.59;;;46.00;20.07
11830;BME280;5972;42.134;24.718;2022-09-16T08:32:57;98878.63;;;46.38;19.65
11830;BME280;5972;42.134;24.718;2022-09-16T08:35:24;98861.03;;;46.32;19.94
11830;BME280;5972;42.134;24.718;2022-09-16T08:37:52;98875.16;;;45.32;20.95
11830;BME280;5972;42.134;24.718;2022-09-16T08:40:22;98847.41;;;44.67;21.17
11830;BME280;5972;42.134;24.718;2022-09-16T08:43:00;98861.63;;;45.71;20.57
11830;BME280;5972;42.134;24.718;2022-09-16T08:45:37;98866.09;;;46.43;19.86
11830;BME280;5972;42.134;24.718;2022-09-16T08:48:22;98866.66;;;46.61;19.26
11830;BME280;5972;42.134;24.718;2022-09-16T08:50:52;98865.69;;;46.99;19.04
11830;BME280;5972;42.134;24.718;2022-09-16T08:53:32;98859.97;;;46.37;19.86
11830;BME280;5972;42.134;24.718;2022-09-16T08:56:03;98860.06;;;46.18;19.96
11830;BME280;5972;42.134;24.718;2022-09-16T08:58:37;98852.09;;;46.07;19.62
11830;BME280;5972;42.134;24.718;2022-09-16T09:01:14;98842.19;;;45.79;19.98
11830;BME280;5972;42.134;24.718;2022-09-16T09:03:45;98838.34;;;46.24;19.65
11830;BME280;5972;42.134;24.718;2022-09-16T09:06:19;98836.22;;;45.36;20.03
11830;BME280;5972;42.134;24.718;2022-09-16T09:08:56;98810.03;;;45.69;20.24
11830;BME280;5972;42.134;24.718;2022-09-16T09:11:29;98834.31;;;46.18;19.32
11830;BME280;5972;42.134;24.718;2022-09-16T09:14:14;98830.00;;;46.38;19.74
11830;BME280;5972;42.134;24.718;2022-09-16T09:16:48;98834.03;;;47.18;18.77
11830;BME280;5972;42.134;24.718;2022-09-16T09:19:27;98825.47;;;47.51;18.17
11830;BME280;5972;42.134;24.718;2022-09-16T09:22:04;98820.09;;;47.90;17.65
11830;BME280;5972;42.134;24.718;2022-09-16T09:24:53;98823.97;;;47.94;17.99
11830;BME280;5972;42.134;24.718;2022-09-16T09:27:26;98816.53;;;48.13;17.73
11830;BME280;5972;42.134;24.718;2022-09-16T09:30:11;98821.84;;;47.83;17.71
11830;BME280;5972;42.134;24.718;2022-09-16T09:35:46;98807.25;;;46.00;19.73
11830;BME280;5972;42.134;24.718;2022-09-16T09:38:35;98805.38;;;43.77;21.89
11830;BME280;5972;42.134;24.718;2022-09-16T09:41:09;98797.84;;;42.52;22.65
11830;BME280;5972;42.134;24.718;2022-09-16T09:43:40;98786.84;;;41.99;23.48
11830;BME280;5972;42.134;24.718;2022-09-16T09:46:14;98787.66;;;40.89;24.51
11830;BME280;5972;42.134;24.718;2022-09-16T09:48:47;98777.63;;;39.38;26.05
11830;BME280;5972;42.134;24.718;2022-09-16T09:51:21;98757.72;;;38.58;26.86
11830;BME280;5972;42.134;24.718;2022-09-16T09:53:55;98774.94;;;37.85;27.80
11830;BME280;5972;42.134;24.718;2022-09-16T09:56:28;98766.09;;;37.68;28.86
11830;BME280;5972;42.134;24.718;2022-09-16T09:59:02;98759.31;;;37.84;28.54
11830;BME280;5972;42.134;24.718;2022-09-16T10:01:32;98769.84;;;37.83;28.79
11830;BME280;5972;42.134;24.718;2022-09-16T10:04:00;98775.72;;;37.38;28.92
11830;BME280;5972;42.134;24.718;2022-09-16T10:06:31;98771.91;;;37.49;29.28
11830;BME280;5972;42.134;24.718;2022-09-16T10:08:59;98762.06;;;36.63;29.82
11830;BME280;5972;42.134;24.718;2022-09-16T10:11:28;98768.31;;;36.43;29.97
11830;BME280;5972;42.134;24.718;2022-09-16T10:13:58;98756.78;;;36.15;30.72
11830;BME280;5972;42.134;24.718;2022-09-16T10:16:27;98756.59;;;36.07;30.96
11830;BME280;5972;42.134;24.718;2022-09-16T10:19:01;98755.75;;;35.80;30.53
11830;BME280;5972;42.134;24.718;2022-09-16T10:21:38;98746.03;;;35.81;31.41
11830;BME280;5972;42.134;24.718;2022-09-16T10:24:26;98726.91;;;36.06;30.35
11830;BME280;5972;42.134;24.718;2022-09-16T10:26:53;98752.72;;;36.42;30.04
11830;BME280;5972;42.134;24.718;2022-09-16T10:29:20;98760.06;;;36.45;29.66
11830;BME280;5972;42.134;24.718;2022-09-16T10:31:47;98760.22;;;36.79;29.36
11830;BME280;5972;42.134;24.718;2022-09-16T10:34:21;98764.59;;;36.93;29.41
11830;BME280;5972;42.134;24.718;2022-09-16T10:36:58;98756.88;;;37.20;28.88
11830;BME280;5972;42.134;24.718;2022-09-16T10:39:26;98753.09;;;37.52;28.10
11830;BME280;5972;42.134;24.718;2022-09-16T10:41:54;98746.59;;;37.57;28.31
11830;BME280;5972;42.134;24.718;2022-09-16T10:44:23;98744.25;;;38.23;27.73
11830;BME280;5972;42.134;24.718;2022-09-16T10:46:53;98745.50;;;38.63;26.93
11830;BME280;5972;42.134;24.718;2022-09-16T10:49:27;98741.25;;;37.87;27.71
11830;BME280;5972;42.134;24.718;2022-09-16T10:52:06;98749.78;;;37.74;28.08
11830;BME280;5972;42.134;24.718;2022-09-16T10:54:33;98745.13;;;37.29;27.13
11830;BME280;5972;42.134;24.718;2022-09-16T10:57:00;98745.50;;;36.86;28.09
11830;BME280;5972;42.134;24.718;2022-09-16T10:59:27;98740.13;;;37.35;27.73
11830;BME280;5972;42.134;24.718;2022-09-16T11:02:00;98705.63;;;37.29;26.69
11830;BME280;5972;42.134;24.718;2022-09-16T11:04:39;98727.91;;;37.87;26.51
11830;BME280;5972;42.134;24.718;2022-09-16T11:07:24;98729.41;;;37.68;26.54
11830;BME280;5972;42.134;24.718;2022-09-16T11:09:59;98720.66;;;37.58;26.83
11830;BME280;5972;42.134;24.718;2022-09-16T11:13:02;98710.06;;;37.93;26.44
11830;BME280;5972;42.134;24.718;2022-09-16T11:15:42;98704.06;;;37.41;26.56
11830;BME280;5972;42.134;24.718;2022-09-16T11:18:24;98707.16;;;37.30;26.89
11830;BME280;5972;42.134;24.718;2022-09-16T11:21:08;98695.16;;;37.17;26.85
11830;BME280;5972;42.134;24.718;2022-09-16T11:23:50;98686.84;;;37.32;27.21
11830;BME280;5972;42.134;24.718;2022-09-16T11:26:28;98676.03;;;37.57;27.30
11830;BME280;5972;42.134;24.718;2022-09-16T11:29:09;98700.63;;;37.69;26.51
11830;BME280;5972;42.134;24.718;2022-09-16T11:31:45;98701.25;;;37.41;26.91
11830;BME280;5972;42.134;24.718;2022-09-16T11:34:28;98688.97;;;36.92;27.24
11830;BME280;5972;42.134;24.718;2022-09-16T11:37:06;98684.88;;;36.93;27.15
11830;BME280;5972;42.134;24.718;2022-09-16T11:39:52;98683.09;;;37.03;27.38
11830;BME280;5972;42.134;24.718;2022-09-16T11:42:26;98688.81;;;37.24;27.44
11830;BME280;5972;42.134;24.718;2022-09-16T11:45:00;98675.19;;;37.01;27.06
11830;BME280;5972;42.134;24.718;2022-09-16T11:47:41;98654.91;;;36.90;27.13
11830;BME280;5972;42.134;24.718;2022-09-16T11:50:27;98661.97;;;37.43;27.45
11830;BME280;5972;42.134;24.718;2022-09-16T11:53:29;98664.31;;;37.94;27.27
11830;BME280;5972;42.134;24.718;2022-09-16T11:56:03;98661.44;;;38.36;26.29
11830;BME280;5972;42.134;24.718;2022-09-16T11:58:36;98659.84;;;38.48;25.63
11830;BME280;5972;42.134;24.718;2022-09-16T12:01:12;98656.13;;;38.04;25.88
11830;BME280;5972;42.134;24.718;2022-09-16T12:03:44;98648.28;;;37.89;25.77
11830;BME280;5972;42.134;24.718;2022-09-16T12:06:16;98659.66;;;38.17;25.54
11830;BME280;5972;42.134;24.718;2022-09-16T12:08:52;98666.31;;;38.35;25.58
11830;BME280;5972;42.134;24.718;2022-09-16T12:11:26;98671.53;;;38.23;25.99
11830;BME280;5972;42.134;24.718;2022-09-16T12:14:05;98671.53;;;38.23;25.87
11830;BME280;5972;42.134;24.718;2022-09-16T12:16:37;98673.81;;;38.25;25.92
11830;BME280;5972;42.134;24.718;2022-09-16T12:19:10;98676.34;;;38.64;25.94
11830;BME280;5972;42.134;24.718;2022-09-16T12:21:43;98658.88;;;38.81;25.47
11830;BME280;5972;42.134;24.718;2022-09-16T12:24:18;98670.66;;;38.93;25.22
11830;BME280;5972;42.134;24.718;2022-09-16T12:26:50;98662.69;;;38.84;24.71
11830;BME280;5972;42.134;24.718;2022-09-16T12:29:25;98658.66;;;38.72;24.93
11830;BME280;5972;42.134;24.718;2022-09-16T12:31:57;98668.72;;;38.52;25.04
11830;BME280;5972;42.134;24.718;2022-09-16T12:34:30;98640.00;;;37.91;24.94
11830;BME280;5972;42.134;24.718;2022-09-16T12:37:02;98667.78;;;37.59;25.47
11830;BME280;5972;42.134;24.718;2022-09-16T12:39:34;98695.38;;;36.92;27.83
11830;BME280;5972;42.134;24.718;2022-09-16T12:42:47;98688.88;;;36.58;29.56
11830;BME280;5972;42.134;24.718;2022-09-16T12:45:42;98694.03;;;36.14;31.14
11830;BME280;5972;42.134;24.718;2022-09-16T12:48:34;98698.28;;;35.89;31.40
11830;BME280;5972;42.134;24.718;2022-09-16T12:54:20;98709.47;;;35.25;32.03
11830;BME280;5972;42.134;24.718;2022-09-16T12:57:09;98716.47;;;35.19;32.44
11830;BME280;5972;42.134;24.718;2022-09-16T12:59:52;98709.84;;;35.16;32.85
11830;BME280;5972;42.134;24.718;2022-09-16T13:02:28;98690.13;;;34.97;33.10
11830;BME280;5972;42.134;24.718;2022-09-16T13:05:03;98716.59;;;35.08;32.98
11830;BME280;5972;42.134;24.718;2022-09-16T13:07:37;98723.34;;;34.99;33.07
11830;BME280;5972;42.134;24.718;2022-09-16T13:10:06;98727.00;;;34.94;33.37
11830;BME280;5972;42.134;24.718;2022-09-16T13:12:36;98729.72;;;34.99;33.73
11830;BME280;5972;42.134;24.718;2022-09-16T13:15:05;98744.31;;;35.17;33.86
11830;BME280;5972;42.134;24.718;2022-09-16T13:17:34;98743.53;;;35.22;33.46
11830;BME280;5972;42.134;24.718;2022-09-16T13:20:04;98740.28;;;35.12;33.12
11830;BME280;5972;42.134;24.718;2022-09-16T13:22:47;98752.06;;;34.92;33.65
11830;BME280;5972;42.134;24.718;2022-09-16T13:25:21;98743.69;;;34.86;33.21
11830;BME280;5972;42.134;24.718;2022-09-16T13:27:56;98746.09;;;34.77;33.65
11830;BME280;5972;42.134;24.718;2022-09-16T13:30:31;98723.06;;;34.54;33.82
11830;BME280;5972;42.134;24.718;2022-09-16T13:33:27;98755.50;;;34.79;33.62